<?xml version="1.0" encoding="UTF-8" standalone="no" ?>
<gpx xmlns="http://www.topografix.com/GPX/1/1" xmlns:xsi="http://www.w3.org/2001/XMLSchema-instance" xsi:schemaLocation="http://www.topografix.com/GPX/1/1 http://www.topografix.com/GPX/1/1/gpx.xsd" version="1.1" creator="VisuGPX - https://www.visugpx.com">
  <metadata>
    <name>2024-11-17  Randonnée TwoNav</name>
    <desc><![CDATA[2024-11-17_140628.trk]]></desc>
  </metadata>
  <trk>
    <name><![CDATA[2024-11-17  Randonnée TwoNav_1]]></name>
    <trkseg>
      <trkpt lat="48.19064" lon="6.78475">
        <ele>447.9</ele>
        <time>2024-11-17T13:06:28Z</time>
      </trkpt>
      <trkpt lat="48.19064" lon="6.78475">
        <ele>447.9</ele>
        <time>2024-11-17T13:06:29Z</time>
      </trkpt>
      <trkpt lat="48.19064" lon="6.78475">
        <ele>447.9</ele>
        <time>2024-11-17T13:06:30Z</time>
      </trkpt>
      <trkpt lat="48.19064" lon="6.78475">
        <ele>447.9</ele>
        <time>2024-11-17T13:06:31Z</time>
      </trkpt>
      <trkpt lat="48.19064" lon="6.78475">
        <ele>447.9</ele>
        <time>2024-11-17T13:06:32Z</time>
      </trkpt>
      <trkpt lat="48.19064" lon="6.78475">
        <ele>447.9</ele>
        <time>2024-11-17T13:06:33Z</time>
      </trkpt>
      <trkpt lat="48.19064" lon="6.78475">
        <ele>447.9</ele>
        <time>2024-11-17T13:06:34Z</time>
      </trkpt>
      <trkpt lat="48.19066" lon="6.78473">
        <ele>447.8</ele>
        <time>2024-11-17T13:06:40Z</time>
      </trkpt>
      <trkpt lat="48.19067" lon="6.78473">
        <ele>447.8</ele>
        <time>2024-11-17T13:06:41Z</time>
      </trkpt>
      <trkpt lat="48.19076" lon="6.78469">
        <ele>447.6</ele>
        <time>2024-11-17T13:06:50Z</time>
      </trkpt>
      <trkpt lat="48.19076" lon="6.78472">
        <ele>447.7</ele>
        <time>2024-11-17T13:06:57Z</time>
      </trkpt>
      <trkpt lat="48.19076" lon="6.78472">
        <ele>447.7</ele>
        <time>2024-11-17T13:06:58Z</time>
      </trkpt>
      <trkpt lat="48.19076" lon="6.78472">
        <ele>447.7</ele>
        <time>2024-11-17T13:06:59Z</time>
      </trkpt>
      <trkpt lat="48.19076" lon="6.78472">
        <ele>447.7</ele>
        <time>2024-11-17T13:07:09Z</time>
      </trkpt>
      <trkpt lat="48.19076" lon="6.78472">
        <ele>447.7</ele>
        <time>2024-11-17T13:07:10Z</time>
      </trkpt>
      <trkpt lat="48.19076" lon="6.78472">
        <ele>447.8</ele>
        <time>2024-11-17T13:07:11Z</time>
      </trkpt>
      <trkpt lat="48.19076" lon="6.78472">
        <ele>447.8</ele>
        <time>2024-11-17T13:07:12Z</time>
      </trkpt>
      <trkpt lat="48.19076" lon="6.78472">
        <ele>447.8</ele>
        <time>2024-11-17T13:07:13Z</time>
      </trkpt>
      <trkpt lat="48.19076" lon="6.78472">
        <ele>447.8</ele>
        <time>2024-11-17T13:07:30Z</time>
      </trkpt>
      <trkpt lat="48.19076" lon="6.78472">
        <ele>447.8</ele>
        <time>2024-11-17T13:07:31Z</time>
      </trkpt>
      <trkpt lat="48.19076" lon="6.78472">
        <ele>447.8</ele>
        <time>2024-11-17T13:07:32Z</time>
      </trkpt>
      <trkpt lat="48.19076" lon="6.78472">
        <ele>447.8</ele>
        <time>2024-11-17T13:07:33Z</time>
      </trkpt>
      <trkpt lat="48.19076" lon="6.78472">
        <ele>447.8</ele>
        <time>2024-11-17T13:07:34Z</time>
      </trkpt>
      <trkpt lat="48.19078" lon="6.78473">
        <ele>447.8</ele>
        <time>2024-11-17T13:08:47Z</time>
      </trkpt>
      <trkpt lat="48.19079" lon="6.78473">
        <ele>447.6</ele>
        <time>2024-11-17T13:08:48Z</time>
      </trkpt>
      <trkpt lat="48.19084" lon="6.78487">
        <ele>448.2</ele>
        <time>2024-11-17T13:08:57Z</time>
      </trkpt>
      <trkpt lat="48.19089" lon="6.78499">
        <ele>448.4</ele>
        <time>2024-11-17T13:09:05Z</time>
      </trkpt>
      <trkpt lat="48.1909" lon="6.78513">
        <ele>448.1</ele>
        <time>2024-11-17T13:09:13Z</time>
      </trkpt>
      <trkpt lat="48.19092" lon="6.78526">
        <ele>448.5</ele>
        <time>2024-11-17T13:09:21Z</time>
      </trkpt>
      <trkpt lat="48.19095" lon="6.7854">
        <ele>448.3</ele>
        <time>2024-11-17T13:09:31Z</time>
      </trkpt>
      <trkpt lat="48.19097" lon="6.78553">
        <ele>446.5</ele>
        <time>2024-11-17T13:09:40Z</time>
      </trkpt>
      <trkpt lat="48.191" lon="6.78567">
        <ele>444.2</ele>
        <time>2024-11-17T13:09:48Z</time>
      </trkpt>
      <trkpt lat="48.19101" lon="6.78581">
        <ele>443.4</ele>
        <time>2024-11-17T13:09:56Z</time>
      </trkpt>
      <trkpt lat="48.19098" lon="6.78596">
        <ele>444.1</ele>
        <time>2024-11-17T13:10:05Z</time>
      </trkpt>
      <trkpt lat="48.19091" lon="6.78607">
        <ele>445</ele>
        <time>2024-11-17T13:10:13Z</time>
      </trkpt>
      <trkpt lat="48.19085" lon="6.78618">
        <ele>445.9</ele>
        <time>2024-11-17T13:10:22Z</time>
      </trkpt>
      <trkpt lat="48.19081" lon="6.78631">
        <ele>446.9</ele>
        <time>2024-11-17T13:10:30Z</time>
      </trkpt>
      <trkpt lat="48.1908" lon="6.78646">
        <ele>447</ele>
        <time>2024-11-17T13:10:39Z</time>
      </trkpt>
      <trkpt lat="48.19081" lon="6.7866">
        <ele>447</ele>
        <time>2024-11-17T13:10:47Z</time>
      </trkpt>
      <trkpt lat="48.19083" lon="6.78675">
        <ele>446.5</ele>
        <time>2024-11-17T13:10:56Z</time>
      </trkpt>
      <trkpt lat="48.19085" lon="6.78688">
        <ele>445.9</ele>
        <time>2024-11-17T13:11:04Z</time>
      </trkpt>
      <trkpt lat="48.19086" lon="6.78703">
        <ele>445.9</ele>
        <time>2024-11-17T13:11:12Z</time>
      </trkpt>
      <trkpt lat="48.19087" lon="6.78718">
        <ele>446</ele>
        <time>2024-11-17T13:11:21Z</time>
      </trkpt>
      <trkpt lat="48.19088" lon="6.78731">
        <ele>445.5</ele>
        <time>2024-11-17T13:11:28Z</time>
      </trkpt>
      <trkpt lat="48.19088" lon="6.78745">
        <ele>445.1</ele>
        <time>2024-11-17T13:11:37Z</time>
      </trkpt>
      <trkpt lat="48.19091" lon="6.78759">
        <ele>444.6</ele>
        <time>2024-11-17T13:11:44Z</time>
      </trkpt>
      <trkpt lat="48.19091" lon="6.78774">
        <ele>446.1</ele>
        <time>2024-11-17T13:11:55Z</time>
      </trkpt>
      <trkpt lat="48.19088" lon="6.7878">
        <ele>447.9</ele>
        <time>2024-11-17T13:12:12Z</time>
      </trkpt>
      <trkpt lat="48.19088" lon="6.7878">
        <ele>447.9</ele>
        <time>2024-11-17T13:12:13Z</time>
      </trkpt>
      <trkpt lat="48.19085" lon="6.78783">
        <ele>448.1</ele>
        <time>2024-11-17T13:12:17Z</time>
      </trkpt>
      <trkpt lat="48.19084" lon="6.78784">
        <ele>448.7</ele>
        <time>2024-11-17T13:12:18Z</time>
      </trkpt>
      <trkpt lat="48.19083" lon="6.78785">
        <ele>448.7</ele>
        <time>2024-11-17T13:12:19Z</time>
      </trkpt>
      <trkpt lat="48.19076" lon="6.78795">
        <ele>449.1</ele>
        <time>2024-11-17T13:12:28Z</time>
      </trkpt>
      <trkpt lat="48.19082" lon="6.78806">
        <ele>449.4</ele>
        <time>2024-11-17T13:12:41Z</time>
      </trkpt>
      <trkpt lat="48.19086" lon="6.78819">
        <ele>449</ele>
        <time>2024-11-17T13:12:49Z</time>
      </trkpt>
      <trkpt lat="48.19089" lon="6.78833">
        <ele>448.8</ele>
        <time>2024-11-17T13:12:57Z</time>
      </trkpt>
      <trkpt lat="48.1909" lon="6.78846">
        <ele>449.1</ele>
        <time>2024-11-17T13:13:05Z</time>
      </trkpt>
      <trkpt lat="48.1909" lon="6.78861">
        <ele>449.2</ele>
        <time>2024-11-17T13:13:13Z</time>
      </trkpt>
      <trkpt lat="48.19091" lon="6.78874">
        <ele>449.3</ele>
        <time>2024-11-17T13:13:21Z</time>
      </trkpt>
      <trkpt lat="48.1909" lon="6.78889">
        <ele>449.2</ele>
        <time>2024-11-17T13:13:30Z</time>
      </trkpt>
      <trkpt lat="48.19091" lon="6.78903">
        <ele>449.2</ele>
        <time>2024-11-17T13:13:39Z</time>
      </trkpt>
      <trkpt lat="48.191" lon="6.78902">
        <ele>449.3</ele>
        <time>2024-11-17T13:13:46Z</time>
      </trkpt>
      <trkpt lat="48.1911" lon="6.78902">
        <ele>449.4</ele>
        <time>2024-11-17T13:13:54Z</time>
      </trkpt>
      <trkpt lat="48.19117" lon="6.78911">
        <ele>449.8</ele>
        <time>2024-11-17T13:14:03Z</time>
      </trkpt>
      <trkpt lat="48.19123" lon="6.78923">
        <ele>450.2</ele>
        <time>2024-11-17T13:14:11Z</time>
      </trkpt>
      <trkpt lat="48.19129" lon="6.78933">
        <ele>450.5</ele>
        <time>2024-11-17T13:14:19Z</time>
      </trkpt>
      <trkpt lat="48.19126" lon="6.78946">
        <ele>450.6</ele>
        <time>2024-11-17T13:14:30Z</time>
      </trkpt>
      <trkpt lat="48.19116" lon="6.78951">
        <ele>450.4</ele>
        <time>2024-11-17T13:14:39Z</time>
      </trkpt>
      <trkpt lat="48.19108" lon="6.78958">
        <ele>450.1</ele>
        <time>2024-11-17T13:14:47Z</time>
      </trkpt>
      <trkpt lat="48.191" lon="6.78964">
        <ele>450</ele>
        <time>2024-11-17T13:14:55Z</time>
      </trkpt>
      <trkpt lat="48.19091" lon="6.7897">
        <ele>449.9</ele>
        <time>2024-11-17T13:15:03Z</time>
      </trkpt>
      <trkpt lat="48.19083" lon="6.78977">
        <ele>449.7</ele>
        <time>2024-11-17T13:15:12Z</time>
      </trkpt>
      <trkpt lat="48.19075" lon="6.78984">
        <ele>449.5</ele>
        <time>2024-11-17T13:15:20Z</time>
      </trkpt>
      <trkpt lat="48.19066" lon="6.78993">
        <ele>449.5</ele>
        <time>2024-11-17T13:15:28Z</time>
      </trkpt>
      <trkpt lat="48.19061" lon="6.79004">
        <ele>449.6</ele>
        <time>2024-11-17T13:15:36Z</time>
      </trkpt>
      <trkpt lat="48.19062" lon="6.79018">
        <ele>449.9</ele>
        <time>2024-11-17T13:15:45Z</time>
      </trkpt>
      <trkpt lat="48.19064" lon="6.79032">
        <ele>450.1</ele>
        <time>2024-11-17T13:15:53Z</time>
      </trkpt>
      <trkpt lat="48.19067" lon="6.79046">
        <ele>450.4</ele>
        <time>2024-11-17T13:16:02Z</time>
      </trkpt>
      <trkpt lat="48.19068" lon="6.79061">
        <ele>450.6</ele>
        <time>2024-11-17T13:16:10Z</time>
      </trkpt>
      <trkpt lat="48.19077" lon="6.79062">
        <ele>450.8</ele>
        <time>2024-11-17T13:16:19Z</time>
      </trkpt>
      <trkpt lat="48.19085" lon="6.79052">
        <ele>451.1</ele>
        <time>2024-11-17T13:16:27Z</time>
      </trkpt>
      <trkpt lat="48.19093" lon="6.79046">
        <ele>451.4</ele>
        <time>2024-11-17T13:16:35Z</time>
      </trkpt>
      <trkpt lat="48.19103" lon="6.79044">
        <ele>451.7</ele>
        <time>2024-11-17T13:16:43Z</time>
      </trkpt>
      <trkpt lat="48.19113" lon="6.79039">
        <ele>452</ele>
        <time>2024-11-17T13:16:51Z</time>
      </trkpt>
      <trkpt lat="48.19122" lon="6.79036">
        <ele>452.2</ele>
        <time>2024-11-17T13:16:59Z</time>
      </trkpt>
      <trkpt lat="48.19132" lon="6.79033">
        <ele>452.5</ele>
        <time>2024-11-17T13:17:07Z</time>
      </trkpt>
      <trkpt lat="48.1914" lon="6.79039">
        <ele>452.9</ele>
        <time>2024-11-17T13:17:16Z</time>
      </trkpt>
      <trkpt lat="48.19147" lon="6.79049">
        <ele>453.3</ele>
        <time>2024-11-17T13:17:24Z</time>
      </trkpt>
      <trkpt lat="48.19154" lon="6.7906">
        <ele>453.5</ele>
        <time>2024-11-17T13:17:32Z</time>
      </trkpt>
      <trkpt lat="48.19158" lon="6.79072">
        <ele>453.8</ele>
        <time>2024-11-17T13:17:39Z</time>
      </trkpt>
      <trkpt lat="48.19162" lon="6.79085">
        <ele>454.4</ele>
        <time>2024-11-17T13:17:47Z</time>
      </trkpt>
      <trkpt lat="48.19168" lon="6.79098">
        <ele>454.9</ele>
        <time>2024-11-17T13:17:55Z</time>
      </trkpt>
      <trkpt lat="48.19173" lon="6.79109">
        <ele>455.3</ele>
        <time>2024-11-17T13:18:03Z</time>
      </trkpt>
      <trkpt lat="48.19179" lon="6.7912">
        <ele>455.9</ele>
        <time>2024-11-17T13:18:11Z</time>
      </trkpt>
      <trkpt lat="48.19186" lon="6.7913">
        <ele>456.4</ele>
        <time>2024-11-17T13:18:19Z</time>
      </trkpt>
      <trkpt lat="48.19193" lon="6.7914">
        <ele>456.9</ele>
        <time>2024-11-17T13:18:27Z</time>
      </trkpt>
      <trkpt lat="48.192" lon="6.79149">
        <ele>457</ele>
        <time>2024-11-17T13:18:35Z</time>
      </trkpt>
      <trkpt lat="48.19207" lon="6.79159">
        <ele>456.9</ele>
        <time>2024-11-17T13:18:43Z</time>
      </trkpt>
      <trkpt lat="48.19208" lon="6.79174">
        <ele>456.7</ele>
        <time>2024-11-17T13:18:52Z</time>
      </trkpt>
      <trkpt lat="48.19205" lon="6.79188">
        <ele>456.2</ele>
        <time>2024-11-17T13:19:00Z</time>
      </trkpt>
      <trkpt lat="48.19198" lon="6.79199">
        <ele>455.8</ele>
        <time>2024-11-17T13:19:08Z</time>
      </trkpt>
      <trkpt lat="48.19188" lon="6.79199">
        <ele>455.6</ele>
        <time>2024-11-17T13:19:16Z</time>
      </trkpt>
      <trkpt lat="48.1918" lon="6.79203">
        <ele>455.1</ele>
        <time>2024-11-17T13:19:25Z</time>
      </trkpt>
      <trkpt lat="48.19171" lon="6.79206">
        <ele>454.5</ele>
        <time>2024-11-17T13:19:32Z</time>
      </trkpt>
      <trkpt lat="48.19162" lon="6.79209">
        <ele>454</ele>
        <time>2024-11-17T13:19:40Z</time>
      </trkpt>
      <trkpt lat="48.19152" lon="6.79213">
        <ele>453.4</ele>
        <time>2024-11-17T13:19:50Z</time>
      </trkpt>
      <trkpt lat="48.19143" lon="6.79215">
        <ele>452.9</ele>
        <time>2024-11-17T13:19:57Z</time>
      </trkpt>
      <trkpt lat="48.19134" lon="6.79222">
        <ele>452.5</ele>
        <time>2024-11-17T13:20:05Z</time>
      </trkpt>
      <trkpt lat="48.19126" lon="6.79229">
        <ele>452.2</ele>
        <time>2024-11-17T13:20:12Z</time>
      </trkpt>
      <trkpt lat="48.19117" lon="6.79234">
        <ele>452</ele>
        <time>2024-11-17T13:20:22Z</time>
      </trkpt>
      <trkpt lat="48.19117" lon="6.79234">
        <ele>452</ele>
        <time>2024-11-17T13:20:24Z</time>
      </trkpt>
      <trkpt lat="48.19117" lon="6.79234">
        <ele>452</ele>
        <time>2024-11-17T13:20:25Z</time>
      </trkpt>
      <trkpt lat="48.19117" lon="6.79234">
        <ele>452</ele>
        <time>2024-11-17T13:20:26Z</time>
      </trkpt>
      <trkpt lat="48.19116" lon="6.79234">
        <ele>452</ele>
        <time>2024-11-17T13:20:27Z</time>
      </trkpt>
      <trkpt lat="48.19115" lon="6.79235">
        <ele>452</ele>
        <time>2024-11-17T13:20:28Z</time>
      </trkpt>
      <trkpt lat="48.19114" lon="6.79235">
        <ele>452</ele>
        <time>2024-11-17T13:20:29Z</time>
      </trkpt>
      <trkpt lat="48.19111" lon="6.79235">
        <ele>452</ele>
        <time>2024-11-17T13:20:37Z</time>
      </trkpt>
      <trkpt lat="48.19111" lon="6.79235">
        <ele>452</ele>
        <time>2024-11-17T13:20:38Z</time>
      </trkpt>
      <trkpt lat="48.19111" lon="6.79236">
        <ele>452</ele>
        <time>2024-11-17T13:20:39Z</time>
      </trkpt>
      <trkpt lat="48.19111" lon="6.79236">
        <ele>452</ele>
        <time>2024-11-17T13:20:40Z</time>
      </trkpt>
      <trkpt lat="48.19112" lon="6.79235">
        <ele>452</ele>
        <time>2024-11-17T13:20:41Z</time>
      </trkpt>
      <trkpt lat="48.19112" lon="6.79236">
        <ele>452</ele>
        <time>2024-11-17T13:20:42Z</time>
      </trkpt>
      <trkpt lat="48.19112" lon="6.79236">
        <ele>452</ele>
        <time>2024-11-17T13:20:43Z</time>
      </trkpt>
      <trkpt lat="48.19112" lon="6.79236">
        <ele>452</ele>
        <time>2024-11-17T13:20:44Z</time>
      </trkpt>
      <trkpt lat="48.1911" lon="6.79236">
        <ele>452</ele>
        <time>2024-11-17T13:20:48Z</time>
      </trkpt>
      <trkpt lat="48.19109" lon="6.79236">
        <ele>452</ele>
        <time>2024-11-17T13:20:49Z</time>
      </trkpt>
      <trkpt lat="48.191" lon="6.79235">
        <ele>451.9</ele>
        <time>2024-11-17T13:20:57Z</time>
      </trkpt>
      <trkpt lat="48.19091" lon="6.7923">
        <ele>451.9</ele>
        <time>2024-11-17T13:21:05Z</time>
      </trkpt>
      <trkpt lat="48.19084" lon="6.7922">
        <ele>451.9</ele>
        <time>2024-11-17T13:21:13Z</time>
      </trkpt>
      <trkpt lat="48.19079" lon="6.79208">
        <ele>452</ele>
        <time>2024-11-17T13:21:21Z</time>
      </trkpt>
      <trkpt lat="48.19074" lon="6.79195">
        <ele>452.1</ele>
        <time>2024-11-17T13:21:29Z</time>
      </trkpt>
      <trkpt lat="48.1907" lon="6.79182">
        <ele>452.1</ele>
        <time>2024-11-17T13:21:37Z</time>
      </trkpt>
      <trkpt lat="48.19065" lon="6.79169">
        <ele>452.1</ele>
        <time>2024-11-17T13:21:45Z</time>
      </trkpt>
      <trkpt lat="48.19058" lon="6.79159">
        <ele>452</ele>
        <time>2024-11-17T13:21:53Z</time>
      </trkpt>
      <trkpt lat="48.19049" lon="6.79154">
        <ele>451.8</ele>
        <time>2024-11-17T13:22:01Z</time>
      </trkpt>
      <trkpt lat="48.1904" lon="6.79156">
        <ele>451.8</ele>
        <time>2024-11-17T13:22:09Z</time>
      </trkpt>
      <trkpt lat="48.19031" lon="6.79158">
        <ele>451.8</ele>
        <time>2024-11-17T13:22:16Z</time>
      </trkpt>
      <trkpt lat="48.19021" lon="6.79159">
        <ele>451.9</ele>
        <time>2024-11-17T13:22:24Z</time>
      </trkpt>
      <trkpt lat="48.19011" lon="6.79161">
        <ele>452</ele>
        <time>2024-11-17T13:22:32Z</time>
      </trkpt>
      <trkpt lat="48.19003" lon="6.79164">
        <ele>452.2</ele>
        <time>2024-11-17T13:22:39Z</time>
      </trkpt>
      <trkpt lat="48.18994" lon="6.79168">
        <ele>452.3</ele>
        <time>2024-11-17T13:22:47Z</time>
      </trkpt>
      <trkpt lat="48.18984" lon="6.79172">
        <ele>452.4</ele>
        <time>2024-11-17T13:22:54Z</time>
      </trkpt>
      <trkpt lat="48.18974" lon="6.79176">
        <ele>452.7</ele>
        <time>2024-11-17T13:23:03Z</time>
      </trkpt>
      <trkpt lat="48.18967" lon="6.79167">
        <ele>453.3</ele>
        <time>2024-11-17T13:23:14Z</time>
      </trkpt>
      <trkpt lat="48.1897" lon="6.79155">
        <ele>453.3</ele>
        <time>2024-11-17T13:23:22Z</time>
      </trkpt>
      <trkpt lat="48.18975" lon="6.79142">
        <ele>453.4</ele>
        <time>2024-11-17T13:23:30Z</time>
      </trkpt>
      <trkpt lat="48.18982" lon="6.79133">
        <ele>453.2</ele>
        <time>2024-11-17T13:23:40Z</time>
      </trkpt>
      <trkpt lat="48.1899" lon="6.79125">
        <ele>453</ele>
        <time>2024-11-17T13:23:47Z</time>
      </trkpt>
      <trkpt lat="48.18993" lon="6.7911">
        <ele>452.9</ele>
        <time>2024-11-17T13:23:55Z</time>
      </trkpt>
      <trkpt lat="48.18995" lon="6.79096">
        <ele>452.6</ele>
        <time>2024-11-17T13:24:02Z</time>
      </trkpt>
      <trkpt lat="48.18999" lon="6.79083">
        <ele>452.1</ele>
        <time>2024-11-17T13:24:10Z</time>
      </trkpt>
      <trkpt lat="48.19003" lon="6.79069">
        <ele>451.8</ele>
        <time>2024-11-17T13:24:18Z</time>
      </trkpt>
      <trkpt lat="48.19008" lon="6.79057">
        <ele>451.3</ele>
        <time>2024-11-17T13:24:26Z</time>
      </trkpt>
      <trkpt lat="48.19012" lon="6.79045">
        <ele>450.9</ele>
        <time>2024-11-17T13:24:35Z</time>
      </trkpt>
      <trkpt lat="48.19016" lon="6.79032">
        <ele>450.4</ele>
        <time>2024-11-17T13:24:43Z</time>
      </trkpt>
      <trkpt lat="48.19023" lon="6.79022">
        <ele>450.1</ele>
        <time>2024-11-17T13:24:51Z</time>
      </trkpt>
      <trkpt lat="48.19028" lon="6.7901">
        <ele>449.8</ele>
        <time>2024-11-17T13:24:59Z</time>
      </trkpt>
      <trkpt lat="48.19036" lon="6.79004">
        <ele>449.8</ele>
        <time>2024-11-17T13:25:13Z</time>
      </trkpt>
      <trkpt lat="48.19033" lon="6.78989">
        <ele>449.3</ele>
        <time>2024-11-17T13:25:21Z</time>
      </trkpt>
      <trkpt lat="48.1903" lon="6.78975">
        <ele>448.9</ele>
        <time>2024-11-17T13:25:29Z</time>
      </trkpt>
      <trkpt lat="48.19026" lon="6.78961">
        <ele>448.6</ele>
        <time>2024-11-17T13:25:37Z</time>
      </trkpt>
      <trkpt lat="48.19022" lon="6.78949">
        <ele>448.1</ele>
        <time>2024-11-17T13:25:44Z</time>
      </trkpt>
      <trkpt lat="48.19018" lon="6.78935">
        <ele>447.8</ele>
        <time>2024-11-17T13:25:52Z</time>
      </trkpt>
      <trkpt lat="48.19015" lon="6.78922">
        <ele>447.6</ele>
        <time>2024-11-17T13:26:00Z</time>
      </trkpt>
      <trkpt lat="48.19013" lon="6.78909">
        <ele>447.5</ele>
        <time>2024-11-17T13:26:08Z</time>
      </trkpt>
      <trkpt lat="48.1901" lon="6.78895">
        <ele>447.5</ele>
        <time>2024-11-17T13:26:16Z</time>
      </trkpt>
      <trkpt lat="48.19007" lon="6.78882">
        <ele>447.6</ele>
        <time>2024-11-17T13:26:24Z</time>
      </trkpt>
      <trkpt lat="48.19007" lon="6.7888">
        <ele>447.6</ele>
        <time>2024-11-17T13:26:29Z</time>
      </trkpt>
      <trkpt lat="48.19007" lon="6.7888">
        <ele>447.6</ele>
        <time>2024-11-17T13:26:30Z</time>
      </trkpt>
      <trkpt lat="48.19007" lon="6.7888">
        <ele>447.7</ele>
        <time>2024-11-17T13:26:31Z</time>
      </trkpt>
      <trkpt lat="48.19007" lon="6.78879">
        <ele>447.7</ele>
        <time>2024-11-17T13:26:43Z</time>
      </trkpt>
      <trkpt lat="48.19007" lon="6.78879">
        <ele>447.7</ele>
        <time>2024-11-17T13:26:44Z</time>
      </trkpt>
      <trkpt lat="48.19003" lon="6.78865">
        <ele>447.9</ele>
        <time>2024-11-17T13:26:52Z</time>
      </trkpt>
      <trkpt lat="48.19" lon="6.7885">
        <ele>448.1</ele>
        <time>2024-11-17T13:27:00Z</time>
      </trkpt>
      <trkpt lat="48.18995" lon="6.78838">
        <ele>448.3</ele>
        <time>2024-11-17T13:27:07Z</time>
      </trkpt>
      <trkpt lat="48.18991" lon="6.78825">
        <ele>448.6</ele>
        <time>2024-11-17T13:27:15Z</time>
      </trkpt>
      <trkpt lat="48.18989" lon="6.7881">
        <ele>448.9</ele>
        <time>2024-11-17T13:27:23Z</time>
      </trkpt>
      <trkpt lat="48.18991" lon="6.78795">
        <ele>449.3</ele>
        <time>2024-11-17T13:27:31Z</time>
      </trkpt>
      <trkpt lat="48.18998" lon="6.78784">
        <ele>449.5</ele>
        <time>2024-11-17T13:27:39Z</time>
      </trkpt>
      <trkpt lat="48.19004" lon="6.78773">
        <ele>449.7</ele>
        <time>2024-11-17T13:27:47Z</time>
      </trkpt>
      <trkpt lat="48.19011" lon="6.78765">
        <ele>449.8</ele>
        <time>2024-11-17T13:27:56Z</time>
      </trkpt>
      <trkpt lat="48.19021" lon="6.78759">
        <ele>449.7</ele>
        <time>2024-11-17T13:28:05Z</time>
      </trkpt>
      <trkpt lat="48.1902" lon="6.78745">
        <ele>449.8</ele>
        <time>2024-11-17T13:28:16Z</time>
      </trkpt>
      <trkpt lat="48.19023" lon="6.78731">
        <ele>449.8</ele>
        <time>2024-11-17T13:28:25Z</time>
      </trkpt>
      <trkpt lat="48.1903" lon="6.78721">
        <ele>449.6</ele>
        <time>2024-11-17T13:28:34Z</time>
      </trkpt>
      <trkpt lat="48.19039" lon="6.78716">
        <ele>449.6</ele>
        <time>2024-11-17T13:28:42Z</time>
      </trkpt>
      <trkpt lat="48.19041" lon="6.78703">
        <ele>449.6</ele>
        <time>2024-11-17T13:28:49Z</time>
      </trkpt>
      <trkpt lat="48.19042" lon="6.78689">
        <ele>449.6</ele>
        <time>2024-11-17T13:28:55Z</time>
      </trkpt>
      <trkpt lat="48.19042" lon="6.78675">
        <ele>449.6</ele>
        <time>2024-11-17T13:29:03Z</time>
      </trkpt>
      <trkpt lat="48.1904" lon="6.7866">
        <ele>449.5</ele>
        <time>2024-11-17T13:29:12Z</time>
      </trkpt>
      <trkpt lat="48.19044" lon="6.78645">
        <ele>449.5</ele>
        <time>2024-11-17T13:29:20Z</time>
      </trkpt>
      <trkpt lat="48.19043" lon="6.78632">
        <ele>449.5</ele>
        <time>2024-11-17T13:29:27Z</time>
      </trkpt>
      <trkpt lat="48.19041" lon="6.78617">
        <ele>449.3</ele>
        <time>2024-11-17T13:29:35Z</time>
      </trkpt>
      <trkpt lat="48.19042" lon="6.78604">
        <ele>449.3</ele>
        <time>2024-11-17T13:29:43Z</time>
      </trkpt>
      <trkpt lat="48.19042" lon="6.78589">
        <ele>449.2</ele>
        <time>2024-11-17T13:29:51Z</time>
      </trkpt>
      <trkpt lat="48.19044" lon="6.78574">
        <ele>449.1</ele>
        <time>2024-11-17T13:30:00Z</time>
      </trkpt>
      <trkpt lat="48.19043" lon="6.7856">
        <ele>448.9</ele>
        <time>2024-11-17T13:30:08Z</time>
      </trkpt>
      <trkpt lat="48.19042" lon="6.78547">
        <ele>448.7</ele>
        <time>2024-11-17T13:30:16Z</time>
      </trkpt>
      <trkpt lat="48.1904" lon="6.78533">
        <ele>448.6</ele>
        <time>2024-11-17T13:30:24Z</time>
      </trkpt>
      <trkpt lat="48.19036" lon="6.7852">
        <ele>448.5</ele>
        <time>2024-11-17T13:30:32Z</time>
      </trkpt>
      <trkpt lat="48.19034" lon="6.78506">
        <ele>448.4</ele>
        <time>2024-11-17T13:30:39Z</time>
      </trkpt>
      <trkpt lat="48.19033" lon="6.78492">
        <ele>448.4</ele>
        <time>2024-11-17T13:30:46Z</time>
      </trkpt>
      <trkpt lat="48.19033" lon="6.78478">
        <ele>448.6</ele>
        <time>2024-11-17T13:30:54Z</time>
      </trkpt>
      <trkpt lat="48.19044" lon="6.78474">
        <ele>448.5</ele>
        <time>2024-11-17T13:31:04Z</time>
      </trkpt>
      <trkpt lat="48.19046" lon="6.78474">
        <ele>448.5</ele>
        <time>2024-11-17T13:31:14Z</time>
      </trkpt>
      <trkpt lat="48.19049" lon="6.78474">
        <ele>448.5</ele>
        <time>2024-11-17T13:31:15Z</time>
      </trkpt>
      <trkpt lat="48.19051" lon="6.78474">
        <ele>448.4</ele>
        <time>2024-11-17T13:31:16Z</time>
      </trkpt>
      <trkpt lat="48.19053" lon="6.78474">
        <ele>448.4</ele>
        <time>2024-11-17T13:31:20Z</time>
      </trkpt>
      <trkpt lat="48.19055" lon="6.78474">
        <ele>448.4</ele>
        <time>2024-11-17T13:31:21Z</time>
      </trkpt>
      <trkpt lat="48.19058" lon="6.78474">
        <ele>448.4</ele>
        <time>2024-11-17T13:31:40Z</time>
      </trkpt>
      <trkpt lat="48.1906" lon="6.78475">
        <ele>448.3</ele>
        <time>2024-11-17T13:31:45Z</time>
      </trkpt>
      <trkpt lat="48.19062" lon="6.78475">
        <ele>448.1</ele>
        <time>2024-11-17T13:31:45Z</time>
      </trkpt>
      <trkpt lat="48.19062" lon="6.78475">
        <ele>448.1</ele>
        <time>2024-11-17T13:31:45Z</time>
      </trkpt>
      <trkpt lat="48.19062" lon="6.78475">
        <ele>448.1</ele>
        <time>2024-11-17T13:31:45Z</time>
      </trkpt>
    </trkseg>
  </trk>
</gpx>